Red Cliff Indian Reservation, Wisconsin
Current Conditions -  °F | °C
As of 7:53 AM on Friday 24 Oct 2014 (Local Time) from KASX Reporting Station
Haze Haze  
Wind Chill: 45°   Ceiling: Unl
Heat Index: 45°   Visibility: 5mi
Dew Point: 44°   Wind: 3mph
Humidity: 97%   Direction: 190°S
Pressure: 29.91"   Gusts: NA
Location:  46.543°N, 90.8706°W
Report Text: KASX 241253Z AUTO 19003KT 5SM BR CLR 07/07 A2991 RMK AO2 SLP134 T00720067
Loading
Personal Weather Stations






























Interactive Weather Map
Tropical Storm Tracking
New forecast layout! Learn more

10-Day Weather Forecast

Advertisements
Track Severe Weather on mobile